createdAt,value
2018-03-25T00:01:33.621Z,99365.44
2018-03-25T00:04:03.568Z,99372.30
2018-03-25T00:06:32.796Z,99368.15
2018-03-25T00:09:01.789Z,99366.88
2018-03-25T00:11:30.683Z,99375.20
2018-03-25T00:13:59.954Z,99374.48
2018-03-25T00:16:29.016Z,99380.28
2018-03-25T00:18:57.912Z,99369.11
2018-03-25T00:21:28.002Z,99372.61
2018-03-25T00:23:56.864Z,99368.91
2018-03-25T00:26:25.751Z,99376.35
2018-03-25T00:28:56.254Z,99375.05
2018-03-25T00:31:25.182Z,99372.92
2018-03-25T00:33:54.176Z,99378.15
2018-03-25T00:36:23.096Z,99379.06
2018-03-25T00:38:52.017Z,99378.95
2018-03-25T00:41:20.882Z,99376.28
2018-03-25T00:43:51.117Z,99374.89
2018-03-25T00:46:20.006Z,99374.95
2018-03-25T00:48:48.898Z,99376.47
2018-03-25T00:51:19.406Z,99379.11
2018-03-25T00:53:48.296Z,99381.91
2018-03-25T00:56:17.210Z,99375.96
2018-03-25T00:58:46.489Z,99380.19
2018-03-25T01:01:16.117Z,99384.43
2018-03-25T01:03:45.378Z,99387.13
2018-03-25T01:06:14.605Z,99384.52
2018-03-25T01:08:43.533Z,99383.73
2018-03-25T01:11:12.478Z,99388.94
2018-03-25T01:13:42.429Z,99397.32
2018-03-25T01:16:12.140Z,99385.23
2018-03-25T01:18:49.611Z,99391.11
2018-03-25T01:21:29.283Z,99392.08
2018-03-25T01:23:58.447Z,99381.34
2018-03-25T01:26:27.959Z,99384.22
2018-03-25T01:28:56.831Z,99382.09
2018-03-25T01:31:25.710Z,99389.96
2018-03-25T01:33:54.920Z,99389.33
2018-03-25T01:36:23.809Z,99391.84
2018-03-25T01:38:52.651Z,99388.51
2018-03-25T01:41:21.995Z,99386.63
2018-03-25T01:43:50.936Z,99390.81
2018-03-25T01:46:19.834Z,99389.05
2018-03-25T01:48:48.758Z,99386.66
2018-03-25T01:51:17.687Z,99390.91
2018-03-25T01:53:46.601Z,99386.68
2018-03-25T01:56:15.870Z,99387.14
2018-03-25T01:58:44.821Z,99387.59
2018-03-25T02:01:13.755Z,99386.73
2018-03-25T02:03:44.014Z,99378.56
2018-03-25T02:06:13.050Z,99379.90
2018-03-25T02:08:41.961Z,99375.08
2018-03-25T02:11:11.550Z,99376.53
2018-03-25T02:13:40.407Z,99386.74
2018-03-25T02:16:09.449Z,99388.15
2018-03-25T02:18:39.753Z,99385.20
2018-03-25T02:21:09.362Z,99382.34
2018-03-25T02:23:38.410Z,99383.56
2018-03-25T02:26:07.795Z,99390.84
2018-03-25T02:28:36.675Z,99391.18
2018-03-25T02:31:05.645Z,99387.59
2018-03-25T02:33:34.991Z,99384.84
2018-03-25T02:36:05.224Z,99384.05
2018-03-25T02:38:34.072Z,99385.61
2018-03-25T02:41:03.541Z,99393.27
2018-03-25T02:43:32.408Z,99396.20
2018-03-25T02:46:02.564Z,99401.17
2018-03-25T02:48:31.985Z,99398.34
2018-03-25T02:51:00.908Z,99398.98
2018-03-25T02:53:29.812Z,99402.00
2018-03-25T02:55:59.110Z,99397.27
2018-03-25T02:58:27.964Z,99405.91
2018-03-25T03:00:56.861Z,99410.21
2018-03-25T03:03:25.759Z,99403.05
2018-03-25T03:05:54.644Z,99410.70
2018-03-25T03:08:23.981Z,99407.27
2018-03-25T03:10:52.864Z,99412.11
2018-03-25T03:13:21.760Z,99406.72
2018-03-25T03:15:51.115Z,99409.75
2018-03-25T03:18:20.105Z,99414.69
2018-03-25T03:20:49.100Z,99417.29
2018-03-25T03:23:18.529Z,99412.86
2018-03-25T03:25:47.456Z,99411.22
2018-03-25T03:28:16.706Z,99413.07
2018-03-25T03:30:45.618Z,99414.46
2018-03-25T03:33:14.745Z,99419.53
2018-03-25T03:35:43.677Z,99419.75
2018-03-25T03:38:12.990Z,99423.30
2018-03-25T03:40:41.870Z,99418.84
2018-03-25T03:43:11.316Z,99423.28
2018-03-25T03:45:40.521Z,99422.21
2018-03-25T03:48:09.804Z,99424.18
2018-03-25T03:50:38.792Z,99424.00
2018-03-25T03:53:08.194Z,99419.69
2018-03-25T03:55:37.138Z,99418.92
2018-03-25T03:58:06.243Z,99421.61
2018-03-25T04:00:35.588Z,99422.35
2018-03-25T04:03:04.503Z,99429.61
2018-03-25T04:05:33.366Z,99437.44
2018-03-25T04:08:04.723Z,99438.63
2018-03-25T04:10:33.654Z,99441.77
2018-03-25T04:13:03.939Z,99449.20
2018-03-25T04:15:33.201Z,99451.62
2018-03-25T04:18:02.484Z,99457.13
2018-03-25T04:20:31.445Z,99459.27
2018-03-25T04:23:00.863Z,99460.77
2018-03-25T04:25:29.858Z,99460.69
2018-03-25T04:27:58.803Z,99456.91
2018-03-25T04:30:28.261Z,99469.96
2018-03-25T04:32:57.175Z,99469.77
2018-03-25T04:35:26.114Z,99469.20
2018-03-25T04:37:55.453Z,99467.89
2018-03-25T04:40:24.322Z,99468.47
2018-03-25T04:42:53.239Z,99463.69
2018-03-25T04:45:22.432Z,99465.56
2018-03-25T04:50:19.314Z,99470.09
2018-03-25T04:52:48.580Z,99470.20
2018-03-25T04:55:17.437Z,99475.52
2018-03-25T04:57:46.333Z,99475.70
2018-03-25T05:00:17.767Z,99474.64
2018-03-25T05:02:47.060Z,99471.98
2018-03-25T05:05:16.440Z,99479.55
2018-03-25T05:07:45.452Z,99480.05
2018-03-25T05:10:14.928Z,99483.98
2018-03-25T05:12:43.871Z,99480.75
2018-03-25T05:15:13.166Z,99483.00
2018-03-25T05:17:42.145Z,99482.75
2018-03-25T05:20:11.773Z,99487.77
2018-03-25T05:22:40.943Z,99497.03
2018-03-25T05:25:09.803Z,99500.16
2018-03-25T05:27:38.715Z,99512.73
2018-03-25T05:30:08.073Z,99510.45
2018-03-25T05:32:37.392Z,99515.91
2018-03-25T05:35:06.439Z,99519.60
2018-03-25T05:37:35.718Z,99518.91
2018-03-25T05:40:05.373Z,99524.58
2018-03-25T05:42:34.268Z,99523.23
2018-03-25T05:45:04.885Z,99531.25
2018-03-25T05:47:33.783Z,99536.09
2018-03-25T05:50:03.655Z,99534.41
2018-03-25T05:52:32.904Z,99533.47
2018-03-25T05:55:01.869Z,99536.30
2018-03-25T05:57:30.997Z,99545.84
2018-03-25T05:59:59.887Z,99551.24
2018-03-25T06:02:28.743Z,99546.14
2018-03-25T06:04:57.613Z,99552.42
2018-03-25T06:07:26.996Z,99553.86
2018-03-25T06:09:56.359Z,99567.05
2018-03-25T06:12:25.375Z,99559.83
2018-03-25T06:14:55.697Z,99563.44
2018-03-25T06:17:24.719Z,99558.98
2018-03-25T06:19:53.715Z,99565.36
2018-03-25T06:22:23.112Z,99565.16
2018-03-25T06:24:52.061Z,99576.50
2018-03-25T06:28:23.594Z,99584.52
2018-03-25T06:30:52.700Z,99588.81
2018-03-25T06:33:22.487Z,99589.19
2018-03-25T06:35:51.957Z,99589.27
2018-03-25T06:38:20.922Z,99586.36
2018-03-25T06:40:49.804Z,99588.73
2018-03-25T06:43:19.205Z,99595.84
2018-03-25T06:45:48.411Z,99600.99
2018-03-25T06:48:17.368Z,99604.37
2018-03-25T06:50:47.298Z,99606.96
2018-03-25T06:53:16.240Z,99603.19
2018-03-25T06:55:45.184Z,99607.63
2018-03-25T06:58:14.863Z,99602.47
2018-03-25T07:00:43.905Z,99612.58
2018-03-25T07:03:13.353Z,99612.84
2018-03-25T07:05:42.710Z,99614.59
2018-03-25T07:08:11.724Z,99608.31
2018-03-25T07:10:40.711Z,99612.97
2018-03-25T07:13:09.678Z,99613.16
2018-03-25T07:15:38.750Z,99617.22
2018-03-25T07:18:07.912Z,99613.73
2018-03-25T07:20:37.326Z,99618.23
2018-03-25T07:23:06.660Z,99619.52
2018-03-25T07:25:35.524Z,99620.37
2018-03-25T07:28:05.614Z,99621.26
2018-03-25T07:30:34.576Z,99622.82
2018-03-25T07:33:03.552Z,99624.33
2018-03-25T07:35:32.839Z,99631.00
2018-03-25T07:38:02.610Z,99632.30
2018-03-25T07:40:31.605Z,99633.66
2018-03-25T07:43:01.132Z,99637.80
2018-03-25T07:45:30.064Z,99636.87
2018-03-25T07:47:59.031Z,99637.86
2018-03-25T07:50:27.970Z,99632.52
2018-03-25T07:52:56.997Z,99640.21
2018-03-25T07:55:25.888Z,99641.33
2018-03-25T07:57:55.223Z,99650.50
2018-03-25T08:00:25.308Z,99649.30
2018-03-25T08:02:54.247Z,99654.91
2018-03-25T08:05:23.630Z,99656.00
2018-03-25T08:07:52.630Z,99656.11
2018-03-25T08:10:21.602Z,99661.50
2018-03-25T08:12:50.945Z,99653.74
2018-03-25T08:15:20.498Z,99663.81
2018-03-25T08:17:49.397Z,99669.35
2018-03-25T08:20:19.718Z,99665.03
2018-03-25T08:22:48.699Z,99669.29
2018-03-25T08:25:17.661Z,99667.36
2018-03-25T08:27:47.101Z,99671.02
2018-03-25T08:30:16.105Z,99669.51
2018-03-25T08:32:45.037Z,99666.34
2018-03-25T08:35:14.228Z,99662.37
2018-03-25T08:37:43.148Z,99661.94
2018-03-25T08:40:12.098Z,99656.83
2018-03-25T08:42:42.465Z,99659.88
2018-03-25T08:45:11.338Z,99666.37
2018-03-25T08:47:40.190Z,99665.17
2018-03-25T08:50:09.528Z,99673.17
2018-03-25T08:52:38.529Z,99672.73
2018-03-25T08:55:07.802Z,99678.80
2018-03-25T08:57:36.700Z,99678.20
2018-03-25T09:00:07.184Z,99674.28
2018-03-25T09:02:37.509Z,99677.81
2018-03-25T09:05:06.678Z,99674.00
2018-03-25T09:07:35.626Z,99676.90
2018-03-25T09:10:07.182Z,99676.88
2018-03-25T09:12:36.367Z,99682.23
2018-03-25T09:15:06.140Z,99681.76
2018-03-25T09:17:35.579Z,99680.50
2018-03-25T09:20:06.804Z,99687.34
2018-03-25T09:22:35.746Z,99691.75
2018-03-25T09:25:05.822Z,99683.91
2018-03-25T09:27:35.674Z,99690.19
2018-03-25T09:30:05.349Z,99691.51
2018-03-25T09:32:34.520Z,99687.44
2018-03-25T09:35:04.062Z,99693.18
2018-03-25T09:37:33.759Z,99689.59
2018-03-25T09:40:04.482Z,99688.80
2018-03-25T09:42:33.378Z,99690.32
2018-03-25T09:45:02.793Z,99687.87
2018-03-25T09:47:32.140Z,99697.05
2018-03-25T09:50:03.908Z,99693.00
2018-03-25T09:52:32.817Z,99687.19
2018-03-25T09:55:02.237Z,99688.70
2018-03-25T09:57:31.141Z,99688.05
2018-03-25T10:00:00.030Z,99687.66
2018-03-25T10:02:33.496Z,99680.91
2018-03-25T10:05:03.165Z,99681.80
2018-03-25T10:07:32.066Z,99683.84
2018-03-25T10:10:01.275Z,99688.00
2018-03-25T10:12:30.193Z,99688.08
2018-03-25T10:14:59.118Z,99687.95
2018-03-25T10:17:28.991Z,99693.91
2018-03-25T10:19:57.871Z,99693.34
2018-03-25T10:22:26.810Z,99699.72
2018-03-25T10:24:56.094Z,99692.66
2018-03-25T10:27:25.023Z,99686.47
2018-03-25T10:59:23.503Z,99668.48
2018-03-25T11:01:52.530Z,99676.94
2018-03-25T11:04:21.420Z,99674.72
2018-03-25T11:06:50.288Z,99671.75
2018-03-25T11:09:19.200Z,99669.61
2018-03-25T11:11:48.107Z,99664.38
2018-03-25T11:14:17.541Z,99675.14
2018-03-25T11:16:46.432Z,99670.41
2018-03-25T11:19:15.785Z,99669.59
2018-03-25T11:21:45.245Z,99670.15
2018-03-25T11:24:14.623Z,99667.31
2018-03-25T11:26:44.687Z,99668.35
2018-03-25T11:29:13.904Z,99664.59
2018-03-25T11:31:42.858Z,99656.81
2018-03-25T11:34:12.138Z,99656.31
2018-03-25T11:36:41.515Z,99657.58
2018-03-25T11:39:10.465Z,99647.80
2018-03-25T11:41:46.392Z,99654.89
2018-03-25T11:44:15.933Z,99643.87
2018-03-25T11:46:44.881Z,99649.70
2018-03-25T11:49:13.772Z,99649.52
2018-03-25T11:51:42.960Z,99648.11
2018-03-25T11:54:11.835Z,99645.43
2018-03-25T11:56:41.486Z,99645.42
2018-03-25T11:59:10.372Z,99643.30
2018-03-25T12:01:39.285Z,99643.27
2018-03-25T12:04:08.994Z,99645.41
2018-03-25T12:06:37.999Z,99640.69
2018-03-25T12:09:06.945Z,99637.25
2018-03-25T12:11:36.139Z,99638.72
2018-03-25T12:14:05.978Z,99640.78
2018-03-25T12:16:34.863Z,99641.67
2018-03-25T12:19:04.524Z,99639.86
2018-03-25T12:21:33.477Z,99640.81
2018-03-25T12:24:04.419Z,99634.98
2018-03-25T12:26:33.359Z,99633.30
2018-03-25T12:29:02.270Z,99636.33
2018-03-25T12:31:31.505Z,99629.89
2018-03-25T12:34:00.396Z,99630.00
2018-03-25T12:36:29.349Z,99627.30
2018-03-25T12:38:58.318Z,99630.28
2018-03-25T12:41:27.226Z,99634.61
2018-03-25T12:43:56.453Z,99631.59
2018-03-25T12:46:25.467Z,99628.53
2018-03-25T12:48:54.480Z,99629.06
2018-03-25T12:51:23.684Z,99636.55
2018-03-25T12:53:52.660Z,99624.84
2018-03-25T12:56:21.773Z,99628.50
2018-03-25T12:58:51.434Z,99627.39
2018-03-25T13:01:21.669Z,99625.91
2018-03-25T13:03:50.840Z,99627.14
2018-03-25T13:08:58.819Z,99623.83
2018-03-25T13:11:27.693Z,99612.31
2018-03-25T13:13:58.571Z,99623.38
2018-03-25T13:16:27.496Z,99618.02
2018-03-25T13:18:56.467Z,99623.05
2018-03-25T13:21:25.428Z,99618.73
2018-03-25T13:23:54.365Z,99619.88
2018-03-25T13:26:23.740Z,99619.98
2018-03-25T13:28:52.768Z,99618.66
2018-03-25T13:31:22.680Z,99612.69
2018-03-25T13:33:52.085Z,99619.88
2018-03-25T13:36:21.284Z,99613.98
2018-03-25T13:38:51.261Z,99606.36
2018-03-25T13:41:20.625Z,99609.47
2018-03-25T13:43:49.625Z,99600.44
2018-03-25T13:46:18.621Z,99602.66
2018-03-25T13:48:47.525Z,99603.78
2018-03-25T13:51:16.464Z,99601.25
2018-03-25T13:53:45.817Z,99598.42
2018-03-25T13:56:14.729Z,99606.86
2018-03-25T13:58:43.627Z,99601.75
2018-03-25T14:01:12.785Z,99601.84
2018-03-25T14:03:41.699Z,99600.17
2018-03-25T14:06:10.634Z,99598.21
2018-03-25T14:08:39.973Z,99595.80
2018-03-25T14:11:09.116Z,99587.80
2018-03-25T14:13:37.981Z,99587.53
2018-03-25T14:16:07.104Z,99601.09
2018-03-25T14:18:36.300Z,99594.91
2018-03-25T14:21:06.457Z,99594.67
2018-03-25T14:23:35.771Z,99596.73
2018-03-25T14:26:05.445Z,99598.05
2018-03-25T14:28:34.418Z,99592.82
2018-03-25T14:31:04.079Z,99591.34
2018-03-25T14:33:32.962Z,99597.77
2018-03-25T14:36:03.551Z,99595.34
2018-03-25T14:38:32.442Z,99591.97
2018-03-25T14:41:01.512Z,99589.45
2018-03-25T14:43:30.847Z,99591.42
2018-03-25T14:45:59.752Z,99597.28
2018-03-25T14:48:28.612Z,99606.92
2018-03-25T14:50:57.524Z,99608.06
2018-03-25T14:53:26.421Z,99601.73
2018-03-25T14:55:55.288Z,99604.51
2018-03-25T14:58:24.660Z,99604.17
2018-03-25T15:00:53.516Z,99604.11
2018-03-25T15:03:22.442Z,99607.91
2018-03-25T15:05:51.580Z,99602.61
2018-03-25T15:08:20.513Z,99610.19
2018-03-25T15:10:49.440Z,99615.27
2018-03-25T15:13:18.958Z,99618.74
2018-03-25T15:15:47.865Z,99621.49
2018-03-25T15:18:17.279Z,99627.86
2018-03-25T15:20:46.152Z,99619.92
2018-03-25T15:23:15.070Z,99630.26
2018-03-25T15:25:44.269Z,99625.27
2018-03-25T15:28:13.156Z,99617.33
2018-03-25T15:30:42.102Z,99622.09
2018-03-25T15:33:11.307Z,99620.16
2018-03-25T15:35:40.191Z,99622.99
2018-03-25T15:38:09.420Z,99617.02
2018-03-25T15:40:38.805Z,99626.09
2018-03-25T15:43:07.736Z,99631.02
2018-03-25T15:45:36.630Z,99633.47
2018-03-25T15:48:07.663Z,99635.99
2018-03-25T15:50:36.557Z,99634.80
2018-03-25T15:53:05.517Z,99634.01
2018-03-25T15:55:34.389Z,99637.71
2018-03-25T15:58:04.423Z,99645.41
2018-03-25T16:00:34.149Z,99646.32
2018-03-25T16:03:04.121Z,99645.63
2018-03-25T16:05:32.969Z,99642.85
2018-03-25T16:08:02.955Z,99650.08
2018-03-25T16:10:31.862Z,99651.67
2018-03-25T16:13:00.771Z,99651.13
2018-03-25T16:15:29.960Z,99656.95
2018-03-25T16:17:59.888Z,99652.45
2018-03-25T16:20:28.780Z,99657.42
2018-03-25T16:22:57.950Z,99659.84
2018-03-25T16:25:26.869Z,99661.23
2018-03-25T16:27:55.710Z,99661.23
2018-03-25T16:30:25.752Z,99664.94
2018-03-25T16:32:54.596Z,99662.41
2018-03-25T16:35:23.445Z,99669.91
2018-03-25T16:37:52.307Z,99672.89
2018-03-25T16:40:21.167Z,99673.41
2018-03-25T16:42:50.045Z,99676.88
2018-03-25T16:45:19.317Z,99685.20
2018-03-25T16:47:48.195Z,99680.98
2018-03-25T16:50:17.634Z,99686.79
2018-03-25T16:52:46.711Z,99686.89
2018-03-25T16:55:15.631Z,99687.72
2018-03-25T16:57:44.539Z,99698.02
2018-03-25T17:00:13.595Z,99698.88
2018-03-25T17:02:42.477Z,99702.78
2018-03-25T17:05:11.713Z,99704.57
2018-03-25T17:07:40.579Z,99704.61
2018-03-25T17:10:10.846Z,99710.11
2018-03-25T17:12:40.229Z,99710.39
2018-03-25T17:15:09.248Z,99717.17
2018-03-25T17:17:38.216Z,99723.25
2018-03-25T17:20:07.362Z,99720.67
2018-03-25T17:22:36.230Z,99727.27
2018-03-25T17:25:06.037Z,99730.67
2018-03-25T17:27:34.916Z,99735.53
2018-03-25T17:30:04.644Z,99737.47
2018-03-25T17:32:34.234Z,99738.65
2018-03-25T17:35:03.926Z,99740.98
2018-03-25T17:37:33.517Z,99735.91
2018-03-25T17:40:03.561Z,99745.91
2018-03-25T17:42:32.516Z,99742.66
2018-03-25T17:45:01.603Z,99746.02
2018-03-25T17:47:30.819Z,99747.39
2018-03-25T17:49:59.871Z,99754.25
2018-03-25T17:52:28.712Z,99755.77
2018-03-25T17:54:57.907Z,99751.84
2018-03-25T17:57:26.790Z,99764.61
2018-03-25T17:59:56.696Z,99762.89
2018-03-25T18:02:25.561Z,99762.42
2018-03-25T18:04:54.435Z,99771.34
2018-03-25T18:07:23.620Z,99770.11
2018-03-25T18:09:52.523Z,99770.98
2018-03-25T18:12:21.439Z,99774.34
2018-03-25T18:14:50.596Z,99777.30
2018-03-25T18:17:33.462Z,99780.21
2018-03-25T18:19:48.636Z,99784.16
2018-03-25T18:22:17.825Z,99784.14
2018-03-25T18:24:46.675Z,99782.61
2018-03-25T18:27:15.702Z,99783.16
2018-03-25T18:29:44.939Z,99786.00
2018-03-25T18:32:14.105Z,99787.55
2018-03-25T18:34:43.078Z,99791.16
2018-03-25T18:37:12.280Z,99792.19
2018-03-25T18:39:41.211Z,99798.81
2018-03-25T18:42:10.292Z,99796.86
2018-03-25T18:44:39.172Z,99806.42
2018-03-25T18:47:08.097Z,99806.74
2018-03-25T18:49:37.858Z,99811.78
2018-03-25T18:52:06.941Z,99810.00
2018-03-25T18:54:35.852Z,99813.41
2018-03-25T18:57:05.240Z,99820.84
2018-03-25T18:59:34.101Z,99823.36
2018-03-25T19:02:04.791Z,99824.86
2018-03-25T19:04:35.593Z,99826.86
2018-03-25T19:07:04.984Z,99830.56
2018-03-25T19:09:33.845Z,99831.38
2018-03-25T19:12:04.626Z,99838.23
2018-03-25T19:14:33.496Z,99835.30
2018-03-25T19:17:02.498Z,99836.23
2018-03-25T19:19:31.704Z,99832.50
2018-03-25T19:22:00.656Z,99847.44
2018-03-25T19:24:29.615Z,99844.55
2018-03-25T19:26:58.590Z,99840.87
2018-03-25T19:29:27.527Z,99841.30
2018-03-25T19:31:56.804Z,99843.27
2018-03-25T19:34:26.322Z,99847.86
2018-03-25T19:36:55.258Z,99850.75
2018-03-25T19:39:24.475Z,99848.95
2018-03-25T19:41:53.643Z,99856.95
2018-03-25T19:44:22.548Z,99855.11
2018-03-25T19:46:51.464Z,99855.01
2018-03-25T19:49:20.315Z,99856.84
2018-03-25T19:51:49.189Z,99858.36
2018-03-25T19:54:18.379Z,99858.99
2018-03-25T19:56:47.306Z,99860.52
2018-03-25T19:59:16.235Z,99858.78
2018-03-25T20:01:45.434Z,99859.45
2018-03-25T20:04:14.558Z,99865.91
2018-03-25T20:06:43.505Z,99863.44
2018-03-25T20:09:13.160Z,99870.86
2018-03-25T20:11:42.078Z,99867.89
2018-03-25T20:14:11.765Z,99873.68
2018-03-25T20:16:40.631Z,99869.89
2018-03-25T20:19:09.560Z,99870.63
2018-03-25T20:21:38.705Z,99876.92
2018-03-25T20:24:07.664Z,99879.22
2018-03-25T20:26:36.569Z,99876.63
2018-03-25T20:29:06.190Z,99878.28
2018-03-25T20:31:35.153Z,99876.73
2018-03-25T20:34:05.171Z,99878.80
2018-03-25T20:36:34.392Z,99880.03
2018-03-25T20:39:04.582Z,99882.41
2018-03-25T20:41:33.590Z,99881.83
2018-03-25T20:44:04.051Z,99886.84
2018-03-25T20:46:32.971Z,99892.11
2018-03-25T20:49:02.187Z,99892.66
2018-03-25T20:51:31.925Z,99890.53
2018-03-25T20:54:00.827Z,99901.72
2018-03-25T20:56:30.105Z,99907.64
2018-03-25T20:58:59.018Z,99908.17
2018-03-25T21:01:27.931Z,99907.31
2018-03-25T21:03:56.836Z,99907.27
2018-03-25T21:06:26.057Z,99911.06
2018-03-25T21:08:54.959Z,99917.36
2018-03-25T21:11:24.103Z,99922.36
2018-03-25T21:13:53.100Z,99921.31
2018-03-25T21:16:21.979Z,99923.70
2018-03-25T21:18:51.105Z,99929.15
2018-03-25T21:21:19.987Z,99929.91
2018-03-25T21:23:48.870Z,99926.81
2018-03-25T21:26:18.719Z,99932.34
2018-03-25T21:28:47.648Z,99932.06
2018-03-25T21:31:16.528Z,99935.66
2018-03-25T21:33:45.473Z,99940.60
2018-03-25T21:36:14.312Z,99941.55
2018-03-25T21:38:43.855Z,99938.74
2018-03-25T21:41:12.783Z,99939.85
2018-03-25T21:43:41.661Z,99942.59
2018-03-25T21:46:11.866Z,99945.30
2018-03-25T21:48:40.774Z,99940.40
2018-03-25T21:51:09.788Z,99938.34
2018-03-25T21:53:40.745Z,99934.97
2018-03-25T21:56:09.719Z,99934.80
2018-03-25T21:58:38.577Z,99939.92
2018-03-25T22:01:08.315Z,99942.91
2018-03-25T22:03:37.220Z,99950.05
2018-03-25T22:06:06.104Z,99940.59
2018-03-25T22:08:35.237Z,99951.61
2018-03-25T22:11:05.291Z,99949.63
2018-03-25T22:13:34.184Z,99954.20
2018-03-25T22:16:03.731Z,99948.09
2018-03-25T22:18:32.628Z,99945.14
2018-03-25T22:21:02.361Z,99948.73
2018-03-25T22:23:31.211Z,99947.81
2018-03-25T22:26:00.076Z,99953.67
2018-03-25T22:28:29.204Z,99955.13
2018-03-25T22:30:58.062Z,99957.33
2018-03-25T22:33:26.969Z,99960.31
2018-03-25T22:35:56.458Z,99956.98
2018-03-25T22:38:25.327Z,99953.28
2018-03-25T22:40:54.173Z,99960.24
2018-03-25T22:43:23.055Z,99957.52
2018-03-25T22:45:51.942Z,99958.40
2018-03-25T22:48:20.784Z,99963.91
2018-03-25T22:50:50.043Z,99965.72
2018-03-25T22:53:19.031Z,99966.53
2018-03-25T22:55:47.886Z,99963.55
2018-03-25T22:58:16.732Z,99965.44
2018-03-25T23:00:45.679Z,99968.03
2018-03-25T23:03:14.837Z,99972.86
2018-03-25T23:05:43.926Z,99967.88
2018-03-25T23:08:13.220Z,99972.89
2018-03-25T23:10:42.160Z,99971.79
2018-03-25T23:13:11.045Z,99980.77
2018-03-25T23:15:40.045Z,99982.41
2018-03-25T23:18:09.396Z,99984.11
2018-03-25T23:20:38.245Z,99987.30
2018-03-25T23:23:07.314Z,99983.07
2018-03-25T23:25:36.448Z,99984.34
2018-03-25T23:28:06.026Z,99981.44
2018-03-25T23:30:34.879Z,99980.83
2018-03-25T23:33:04.170Z,99974.62
2018-03-25T23:35:33.030Z,99973.13
2018-03-25T23:38:05.322Z,99981.44
2018-03-25T23:40:35.131Z,99977.06
2018-03-25T23:43:04.491Z,99977.49
2018-03-25T23:45:33.657Z,99980.97
2018-03-25T23:48:03.266Z,99981.67
2018-03-25T23:50:32.202Z,99981.53
2018-03-25T23:53:01.520Z,99985.74
2018-03-25T23:55:30.387Z,99981.58
2018-03-25T23:57:59.225Z,99982.47
